createdAt,value
2018-03-24T00:00:59.111Z,21.87
2018-03-24T00:03:27.996Z,24.03
2018-03-24T00:05:56.887Z,26.47
2018-03-24T00:08:25.740Z,22.17
2018-03-24T00:10:54.823Z,31.27
2018-03-24T00:13:23.718Z,25.63
2018-03-24T00:15:52.566Z,23.60
2018-03-24T00:18:21.429Z,22.83
2018-03-24T00:20:50.932Z,25.47
2018-03-24T00:23:19.793Z,29.90
2018-03-24T00:25:48.643Z,21.23
2018-03-24T00:28:17.554Z,26.07
2018-03-24T00:30:46.409Z,20.07
2018-03-24T00:33:15.258Z,19.93
2018-03-24T00:35:44.154Z,19.37
2018-03-24T00:38:13.943Z,22.40
2018-03-24T00:40:42.841Z,36.43
2018-03-24T00:43:11.744Z,23.53
2018-03-24T00:45:40.604Z,21.97
2018-03-24T00:48:09.471Z,21.00
2018-03-24T00:50:38.361Z,19.80
2018-03-24T00:53:07.408Z,18.70
2018-03-24T00:55:36.312Z,23.50
2018-03-24T00:58:05.170Z,18.40
2018-03-24T01:00:34.028Z,23.43
2018-03-24T01:03:02.944Z,18.00
2018-03-24T01:05:31.800Z,19.90
2018-03-24T01:08:00.647Z,24.73
2018-03-24T01:10:29.539Z,23.13
2018-03-24T01:12:58.655Z,18.23
2018-03-24T01:15:27.658Z,18.40
2018-03-24T01:17:57.591Z,25.57
2018-03-24T01:20:26.450Z,27.27
2018-03-24T01:22:55.318Z,24.07
2018-03-24T01:25:24.214Z,29.50
2018-03-24T01:27:53.105Z,18.33
2018-03-24T01:30:21.957Z,20.87
2018-03-24T01:32:51.033Z,21.33
2018-03-24T01:35:19.986Z,17.03
2018-03-24T01:37:48.830Z,21.37
2018-03-24T01:40:17.700Z,20.83
2018-03-24T01:42:46.546Z,19.50
2018-03-24T01:45:15.398Z,21.77
2018-03-24T01:47:44.654Z,18.93
2018-03-24T01:50:13.527Z,20.13
2018-03-24T01:52:42.448Z,19.63
2018-03-24T01:55:12.174Z,23.17
2018-03-24T01:57:41.150Z,19.30
2018-03-24T02:00:09.995Z,22.47
2018-03-24T02:02:38.878Z,18.13
2018-03-24T02:05:07.721Z,18.13
2018-03-24T02:07:36.967Z,21.03
2018-03-24T02:10:05.949Z,26.13
2018-03-24T02:12:37.914Z,23.70
2018-03-24T02:15:07.395Z,19.47
2018-03-24T02:17:36.247Z,21.67
2018-03-24T02:20:05.098Z,22.23
2018-03-24T02:22:34.002Z,21.10
2018-03-24T02:25:09.530Z,24.00
2018-03-24T02:27:39.031Z,25.07
2018-03-24T02:30:07.882Z,33.33
2018-03-24T02:32:36.751Z,25.90
2018-03-24T02:35:05.667Z,27.37
2018-03-24T02:37:34.525Z,31.80
2018-03-24T02:40:03.385Z,30.37
2018-03-24T02:42:32.274Z,26.50
2018-03-24T02:45:01.135Z,30.97
2018-03-24T02:47:29.993Z,33.83
2018-03-24T02:49:58.893Z,29.00
2018-03-24T02:52:27.750Z,36.43
2018-03-24T02:54:56.618Z,28.63
2018-03-24T02:57:25.518Z,30.23
2018-03-24T02:59:54.409Z,40.90
2018-03-24T03:02:23.267Z,34.53
2018-03-24T03:04:53.006Z,37.53
2018-03-24T03:07:21.866Z,37.90
2018-03-24T03:09:50.718Z,39.87
2018-03-24T03:12:19.803Z,41.90
2018-03-24T03:14:48.660Z,38.73
2018-03-24T03:17:17.954Z,40.83
2018-03-24T03:19:46.843Z,52.53
2018-03-24T03:22:15.728Z,42.30
2018-03-24T03:24:45.257Z,48.63
2018-03-24T03:27:15.400Z,45.67
2018-03-24T03:29:44.295Z,58.50
2018-03-24T03:32:18.087Z,38.37
2018-03-24T03:34:47.172Z,44.07
2018-03-24T03:37:16.026Z,41.83
2018-03-24T03:39:44.888Z,43.47
2018-03-24T03:42:13.787Z,40.33
2018-03-24T03:44:42.632Z,43.40
2018-03-24T03:47:11.726Z,40.80
2018-03-24T03:49:40.591Z,47.73
2018-03-24T03:52:09.450Z,57.37
2018-03-24T03:54:38.607Z,44.80
2018-03-24T03:57:07.522Z,47.57
2018-03-24T03:59:38.242Z,47.97
2018-03-24T04:02:07.157Z,50.00
2018-03-24T04:04:36.014Z,50.90
2018-03-24T04:07:04.867Z,44.13
2018-03-24T04:09:33.770Z,46.57
2018-03-24T04:12:02.640Z,56.47
2018-03-24T04:14:31.497Z,53.17
2018-03-24T04:17:01.287Z,51.87
2018-03-24T04:19:30.396Z,57.40
2018-03-24T04:21:59.255Z,65.50
2018-03-24T04:24:28.135Z,46.47
2018-03-24T04:26:56.994Z,49.70
2018-03-24T04:29:26.167Z,46.73
2018-03-24T04:31:55.019Z,58.83
2018-03-24T04:34:23.902Z,60.67
2018-03-24T04:36:52.795Z,59.30
2018-03-24T04:39:21.706Z,60.30
2018-03-24T04:41:50.610Z,61.30
2018-03-24T04:44:19.470Z,52.93
2018-03-24T04:46:48.363Z,56.83
2018-03-24T04:49:17.590Z,59.93
2018-03-24T04:51:46.458Z,78.53
2018-03-24T04:54:15.350Z,60.40
2018-03-24T04:56:44.228Z,135.00
2018-03-24T04:59:13.075Z,127.90
2018-03-24T05:01:42.015Z,173.00
2018-03-24T05:04:10.879Z,74.20
2018-03-24T05:06:39.891Z,84.90
2018-03-24T05:09:08.798Z,128.67
2018-03-24T05:11:37.672Z,178.07
2018-03-24T05:14:06.487Z,124.50
2018-03-24T05:16:38.571Z,169.57
2018-03-24T05:19:07.440Z,123.27
2018-03-24T05:21:36.303Z,124.50
2018-03-24T05:24:05.210Z,96.93
2018-03-24T05:26:34.077Z,73.33
2018-03-24T05:29:02.937Z,174.27
2018-03-24T05:31:31.846Z,105.47
2018-03-24T05:34:00.691Z,213.83
2018-03-24T05:36:29.670Z,220.07
2018-03-24T05:38:59.228Z,98.73
2018-03-24T05:41:28.043Z,127.77
2018-03-24T05:43:56.901Z,86.50
2018-03-24T05:46:25.795Z,90.97
2018-03-24T05:48:54.660Z,86.07
2018-03-24T05:51:23.522Z,112.37
2018-03-24T05:53:52.431Z,191.87
2018-03-24T05:56:21.308Z,148.33
2018-03-24T05:58:50.205Z,248.10
2018-03-24T06:01:19.074Z,297.00
2018-03-24T06:03:47.939Z,173.20
2018-03-24T06:06:16.828Z,132.17
2018-03-24T06:08:45.687Z,116.00
2018-03-24T06:11:14.886Z,169.17
2018-03-24T06:13:43.755Z,163.50
2018-03-24T06:16:12.623Z,124.77
2018-03-24T06:18:43.195Z,253.33
2018-03-24T06:21:12.054Z,176.30
2018-03-24T06:23:40.979Z,106.10
2018-03-24T06:26:10.304Z,141.37
2018-03-24T06:28:39.146Z,81.70
2018-03-24T06:31:10.196Z,152.37
2018-03-24T06:33:39.049Z,93.90
2018-03-24T06:36:11.093Z,130.90
2018-03-24T06:38:40.171Z,107.83
2018-03-24T06:41:09.181Z,122.93
2018-03-24T06:43:38.035Z,186.37
2018-03-24T06:46:06.958Z,130.57
2018-03-24T06:48:35.899Z,59.73
2018-03-24T06:51:04.803Z,174.47
2018-03-24T06:53:33.741Z,58.87
2018-03-24T06:56:02.592Z,157.40
2018-03-24T06:58:34.793Z,99.87
2018-03-24T07:01:03.660Z,130.50
2018-03-24T07:03:32.550Z,78.50
2018-03-24T07:06:01.506Z,54.73
2018-03-24T07:08:30.381Z,102.03
2018-03-24T07:10:59.508Z,87.57
2018-03-24T07:13:28.562Z,112.67
2018-03-24T07:15:57.597Z,120.80
2018-03-24T07:18:26.946Z,49.57
2018-03-24T07:20:55.891Z,180.87
2018-03-24T07:23:24.743Z,173.20
2018-03-24T07:25:53.649Z,64.27
2018-03-24T07:28:22.500Z,106.40
2018-03-24T07:30:51.359Z,77.27
2018-03-24T07:33:21.298Z,50.37
2018-03-24T07:35:50.278Z,50.13
2018-03-24T07:38:19.138Z,66.10
2018-03-24T07:40:48.879Z,45.17
2018-03-24T07:43:17.729Z,65.67
2018-03-24T07:45:46.643Z,46.23
2018-03-24T07:48:15.498Z,49.60
2018-03-24T07:50:44.423Z,42.43
2018-03-24T07:53:13.333Z,41.83
2018-03-24T07:55:42.242Z,40.70
2018-03-24T07:58:11.362Z,46.27
2018-03-24T08:00:40.206Z,39.27
2018-03-24T08:03:09.065Z,39.67
2018-03-24T08:05:38.228Z,44.23
2018-03-24T08:08:07.195Z,41.00
2018-03-24T08:10:36.126Z,44.77
2018-03-24T08:13:05.048Z,40.63
2018-03-24T08:15:33.911Z,39.80
2018-03-24T08:18:02.781Z,43.03
2018-03-24T08:20:32.493Z,41.40
2018-03-24T08:23:01.356Z,40.57
2018-03-24T08:25:30.215Z,44.53
2018-03-24T08:27:59.898Z,39.63
2018-03-24T08:30:28.784Z,41.83
2018-03-24T08:32:57.676Z,40.53
2018-03-24T08:35:26.671Z,39.40
2018-03-24T08:37:55.857Z,37.57
2018-03-24T08:40:24.712Z,38.30
2018-03-24T08:42:53.559Z,36.93
2018-03-24T08:45:23.245Z,38.97
2018-03-24T08:47:52.109Z,37.60
2018-03-24T08:50:20.975Z,36.00
2018-03-24T08:52:49.888Z,37.33
2018-03-24T08:55:18.872Z,37.30
2018-03-24T08:57:49.566Z,35.20
2018-03-24T09:00:18.657Z,32.93
2018-03-24T09:02:47.579Z,31.63
2018-03-24T09:05:16.472Z,33.03
2018-03-24T09:07:45.327Z,29.40
2018-03-24T09:10:14.178Z,29.53
2018-03-24T09:12:43.262Z,32.97
2018-03-24T09:15:12.131Z,28.87
2018-03-24T09:17:41.007Z,28.53
2018-03-24T09:20:10.392Z,26.40
2018-03-24T09:22:39.299Z,26.20
2018-03-24T09:25:08.167Z,24.40
2018-03-24T09:27:37.046Z,23.83
2018-03-24T09:30:05.978Z,26.13
2018-03-24T09:32:34.842Z,22.57
2018-03-24T09:35:03.811Z,21.37
2018-03-24T09:37:33.518Z,19.13
2018-03-24T09:40:02.375Z,17.70
2018-03-24T09:42:31.339Z,19.00
2018-03-24T09:45:00.222Z,17.53
2018-03-24T09:47:29.109Z,16.73
2018-03-24T09:49:57.988Z,19.20
2018-03-24T09:52:26.857Z,17.00
2018-03-24T09:54:55.719Z,17.07
2018-03-24T09:57:26.104Z,15.23
2018-03-24T09:59:54.943Z,15.40
2018-03-24T10:02:23.855Z,15.53
2018-03-24T10:04:53.200Z,15.47
2018-03-24T10:07:22.067Z,14.90
2018-03-24T10:09:50.942Z,15.63
2018-03-24T10:12:19.844Z,13.67
2018-03-24T10:14:48.712Z,14.10
2018-03-24T10:17:18.283Z,13.07
2018-03-24T10:19:47.177Z,12.77
2018-03-24T10:22:35.075Z,13.63
2018-03-24T10:25:03.963Z,12.70
2018-03-24T10:27:32.891Z,12.07
2018-03-24T10:30:01.783Z,13.87
2018-03-24T10:32:34.492Z,12.80
2018-03-24T10:35:09.275Z,13.10
2018-03-24T10:37:43.950Z,12.90
2018-03-24T10:40:13.014Z,12.33
2018-03-24T10:42:42.678Z,10.10
2018-03-24T10:45:11.535Z,10.70
2018-03-24T10:47:40.406Z,9.80
2018-03-24T10:50:09.255Z,10.37
2018-03-24T10:52:38.230Z,10.27
2018-03-24T10:55:07.086Z,9.60
2018-03-24T10:57:37.393Z,8.03
2018-03-24T11:00:06.274Z,8.03
2018-03-24T11:02:35.142Z,9.10
2018-03-24T11:05:04.261Z,8.33
2018-03-24T11:07:33.137Z,8.43
2018-03-24T11:10:02.089Z,8.97
2018-03-24T11:12:31.135Z,7.83
2018-03-24T11:15:00.029Z,9.00
2018-03-24T11:17:28.836Z,8.60
2018-03-24T11:19:57.899Z,8.93
2018-03-24T11:22:27.554Z,9.00
2018-03-24T11:24:56.672Z,9.70
2018-03-24T11:27:25.532Z,9.70
2018-03-24T11:29:54.384Z,11.73
2018-03-24T11:32:23.379Z,10.33
2018-03-24T11:34:52.236Z,9.70
2018-03-24T11:37:21.164Z,9.60
2018-03-24T11:39:50.146Z,9.17
2018-03-24T11:42:19.362Z,10.13
2018-03-24T11:44:48.591Z,11.20
2018-03-24T11:47:17.424Z,11.73
2018-03-24T11:49:46.321Z,9.80
2018-03-24T11:52:15.167Z,9.20
2018-03-24T11:54:44.030Z,11.13
2018-03-24T11:57:12.934Z,12.10
2018-03-24T11:59:41.777Z,12.50
2018-03-24T12:02:10.644Z,11.23
2018-03-24T12:04:39.565Z,11.60
2018-03-24T12:07:08.411Z,10.63
2018-03-24T12:09:37.438Z,12.40
2018-03-24T12:12:07.400Z,12.73
2018-03-24T12:14:37.139Z,12.10
2018-03-24T12:17:06.068Z,12.50
2018-03-24T12:19:34.926Z,12.70
2018-03-24T12:22:04.055Z,11.95
2018-03-24T12:24:33.593Z,11.32
2018-03-24T12:27:02.505Z,11.38
2018-03-24T12:29:32.596Z,10.85
2018-03-24T12:32:01.475Z,11.18
2018-03-24T12:34:30.323Z,11.65
2018-03-24T12:36:59.470Z,12.60
2018-03-24T12:42:03.753Z,10.68
2018-03-24T12:44:32.620Z,10.88
2018-03-24T12:47:01.499Z,11.88
2018-03-24T12:49:31.465Z,12.00
2018-03-24T12:52:00.314Z,12.65
2018-03-24T12:54:29.171Z,11.85
2018-03-24T12:56:58.135Z,12.05
2018-03-24T12:59:26.979Z,12.27
2018-03-24T13:01:55.853Z,11.07
2018-03-24T13:04:24.746Z,11.43
2018-03-24T13:06:53.614Z,12.82
2018-03-24T13:09:22.480Z,12.60
2018-03-24T13:11:52.747Z,11.35
2018-03-24T13:14:21.643Z,13.30
2018-03-24T13:16:50.498Z,12.70
2018-03-24T13:19:19.411Z,13.43
2018-03-24T13:21:48.299Z,12.60
2018-03-24T13:24:17.164Z,13.88
2018-03-24T13:26:47.272Z,12.90
2018-03-24T13:29:16.140Z,15.30
2018-03-24T13:31:45.017Z,16.37
2018-03-24T13:34:14.076Z,15.57
2018-03-24T13:36:42.935Z,15.65
2018-03-24T13:39:11.970Z,15.75
2018-03-24T13:41:40.975Z,14.20
2018-03-24T13:44:09.835Z,13.85
2018-03-24T13:46:38.707Z,14.30
2018-03-24T13:49:08.392Z,14.68
2018-03-24T13:51:37.247Z,15.43
2018-03-24T13:54:06.080Z,14.40
2018-03-24T13:56:35.123Z,14.52
2018-03-24T13:59:06.067Z,16.20
2018-03-24T14:01:34.942Z,15.63
2018-03-24T14:04:06.547Z,14.38
2018-03-24T14:06:35.407Z,14.02
2018-03-24T14:09:04.292Z,14.00
2018-03-24T14:11:33.419Z,15.05
2018-03-24T14:14:02.280Z,13.00
2018-03-24T14:16:31.142Z,14.05
2018-03-24T14:19:00.029Z,12.75
2018-03-24T14:21:29.015Z,13.55
2018-03-24T14:23:58.082Z,12.82
2018-03-24T14:26:26.941Z,12.85
2018-03-24T14:28:56.360Z,13.25
2018-03-24T14:31:25.329Z,12.70
2018-03-24T14:33:54.198Z,13.23
2018-03-24T14:36:23.226Z,12.68
2018-03-24T14:38:52.348Z,12.05
2018-03-24T14:41:21.196Z,12.00
2018-03-24T14:43:50.082Z,11.35
2018-03-24T14:46:18.951Z,11.90
2018-03-24T14:48:47.849Z,11.20
2018-03-24T14:51:16.916Z,11.50
2018-03-24T14:53:45.863Z,11.30
2018-03-24T14:56:14.717Z,10.65
2018-03-24T14:58:43.779Z,11.48
2018-03-24T15:01:12.632Z,13.32
2018-03-24T15:03:41.488Z,11.05
2018-03-24T15:06:10.393Z,11.15
2018-03-24T15:08:39.307Z,14.48
2018-03-24T15:11:08.461Z,12.23
2018-03-24T15:13:37.278Z,13.45
2018-03-24T15:16:06.163Z,11.75
2018-03-24T15:18:35.090Z,11.40
2018-03-24T15:21:03.959Z,11.50
2018-03-24T15:23:32.812Z,11.52
2018-03-24T15:26:01.904Z,13.13
2018-03-24T15:28:30.754Z,10.77
2018-03-24T15:31:06.510Z,11.10
2018-03-24T15:33:41.212Z,10.47
2018-03-24T15:36:16.871Z,11.50
2018-03-24T15:38:45.744Z,37.93
2018-03-24T15:41:14.606Z,10.60
2018-03-24T15:43:43.482Z,11.03
2018-03-24T15:46:12.348Z,11.27
2018-03-24T15:48:41.534Z,10.47
2018-03-24T15:51:10.400Z,10.77
2018-03-24T15:53:39.257Z,10.23
2018-03-24T15:56:08.271Z,9.60
2018-03-24T15:58:38.764Z,10.43
2018-03-24T16:01:07.892Z,10.50
2018-03-24T16:03:36.795Z,60.73
2018-03-24T16:06:05.649Z,14.87
2018-03-24T16:08:34.495Z,9.97
2018-03-24T16:11:03.414Z,9.77
2018-03-24T16:13:32.286Z,10.77
2018-03-24T16:16:01.154Z,9.20
2018-03-24T16:18:30.024Z,10.17
2018-03-24T16:20:58.882Z,9.57
2018-03-24T16:23:27.805Z,9.90
2018-03-24T16:25:56.706Z,9.70
2018-03-24T16:28:25.565Z,10.13
2018-03-24T16:30:55.081Z,9.10
2018-03-24T16:33:23.927Z,10.67
2018-03-24T16:35:52.783Z,9.73
2018-03-24T16:38:21.872Z,9.40
2018-03-24T16:40:50.796Z,9.50
2018-03-24T16:43:19.626Z,9.63
2018-03-24T16:45:48.546Z,8.97
2018-03-24T16:48:17.396Z,9.80
2018-03-24T16:50:46.239Z,9.80
2018-03-24T16:53:16.032Z,9.50
2018-03-24T16:55:44.896Z,11.43
2018-03-24T16:58:13.820Z,9.43
2018-03-24T17:00:42.698Z,9.77
2018-03-24T17:03:11.559Z,10.40
2018-03-24T17:05:40.595Z,9.23
2018-03-24T17:08:09.499Z,10.60
2018-03-24T17:10:38.309Z,11.00
2018-03-24T17:13:07.190Z,8.90
2018-03-24T17:15:36.059Z,10.63
2018-03-24T17:18:05.139Z,8.60
2018-03-24T17:20:33.991Z,11.07
2018-03-24T17:23:02.940Z,9.90
2018-03-24T17:25:32.094Z,9.37
2018-03-24T17:28:00.945Z,8.30
2018-03-24T17:30:30.162Z,8.37
2018-03-24T17:32:59.427Z,7.80
2018-03-24T17:35:28.279Z,7.17
2018-03-24T17:37:57.176Z,8.23
2018-03-24T17:40:26.043Z,10.87
2018-03-24T17:42:54.955Z,7.80
2018-03-24T17:45:24.075Z,8.17
2018-03-24T17:47:52.936Z,7.37
2018-03-24T17:50:21.866Z,7.50
2018-03-24T17:52:50.778Z,8.03
2018-03-24T17:55:19.644Z,7.67
2018-03-24T17:57:48.509Z,7.93
2018-03-24T18:00:17.428Z,8.30
2018-03-24T18:02:46.280Z,8.20
2018-03-24T18:05:15.139Z,8.17
2018-03-24T18:07:44.030Z,7.63
2018-03-24T18:10:12.836Z,8.53
2018-03-24T18:12:43.602Z,7.67
2018-03-24T18:15:12.451Z,8.70
2018-03-24T18:17:41.326Z,8.67
2018-03-24T18:20:10.206Z,7.30
2018-03-24T18:22:39.057Z,8.70
2018-03-24T18:25:07.917Z,9.17
2018-03-24T18:27:36.825Z,10.57
2018-03-24T18:30:05.667Z,8.87
2018-03-24T18:32:34.548Z,8.60
2018-03-24T18:35:04.777Z,10.47
2018-03-24T18:37:33.610Z,9.13
2018-03-24T18:40:02.483Z,7.33
2018-03-24T18:42:31.780Z,7.93
2018-03-24T18:45:00.634Z,7.50
2018-03-24T18:47:29.678Z,6.50
2018-03-24T18:49:58.550Z,6.77
2018-03-24T18:52:27.422Z,7.73
2018-03-24T18:54:57.325Z,9.07
2018-03-24T18:57:26.171Z,7.03
2018-03-24T18:59:55.019Z,8.57
2018-03-24T19:02:23.911Z,8.17
2018-03-24T19:04:52.764Z,8.43
2018-03-24T19:07:21.951Z,8.07
2018-03-24T19:09:50.795Z,6.47
2018-03-24T19:12:19.640Z,7.57
2018-03-24T19:14:50.618Z,7.80
2018-03-24T19:17:19.467Z,7.93
2018-03-24T19:19:48.331Z,12.23
2018-03-24T19:22:17.384Z,10.57
2018-03-24T19:24:46.238Z,7.87
2018-03-24T19:27:15.075Z,10.80
2018-03-24T19:29:45.282Z,9.07
2018-03-24T19:32:14.128Z,8.57
2018-03-24T19:34:43.049Z,8.67
2018-03-24T19:37:11.967Z,17.03
2018-03-24T19:39:40.818Z,16.23
2018-03-24T19:42:09.728Z,13.20
2018-03-24T19:44:38.727Z,9.07
2018-03-24T19:47:07.591Z,9.77
2018-03-24T19:49:36.444Z,12.03
2018-03-24T19:52:05.406Z,10.83
2018-03-24T19:54:34.259Z,13.57
2018-03-24T19:57:03.126Z,11.53
2018-03-24T19:59:33.408Z,8.90
2018-03-24T20:02:02.278Z,8.10
2018-03-24T20:04:31.126Z,12.60
2018-03-24T20:07:00.038Z,12.70
2018-03-24T20:09:28.915Z,17.37
2018-03-24T20:11:57.774Z,16.87
2018-03-24T20:14:26.708Z,14.73
2018-03-24T20:16:56.659Z,10.60
2018-03-24T20:19:25.519Z,10.20
2018-03-24T20:21:54.406Z,9.97
2018-03-24T20:24:23.274Z,10.30
2018-03-24T20:26:52.140Z,12.10
2018-03-24T20:29:21.003Z,11.00
2018-03-24T20:31:49.981Z,12.60
2018-03-24T20:34:18.889Z,11.00
2018-03-24T20:36:47.733Z,9.43
2018-03-24T20:39:16.616Z,12.07
2018-03-24T20:41:45.832Z,10.27
2018-03-24T20:44:14.781Z,9.63
2018-03-24T20:46:43.712Z,10.83
2018-03-24T20:49:13.144Z,8.80
2018-03-24T20:51:41.996Z,13.20
2018-03-24T20:54:10.855Z,12.37
2018-03-24T20:56:39.758Z,11.07
2018-03-24T20:59:08.607Z,11.63
2018-03-24T21:01:38.163Z,11.10
2018-03-24T21:04:07.019Z,12.13
2018-03-24T21:06:35.884Z,12.00
2018-03-24T21:09:04.980Z,11.63
2018-03-24T21:11:33.824Z,11.33
2018-03-24T21:14:02.667Z,10.30
2018-03-24T21:16:31.786Z,12.17
2018-03-24T21:19:01.694Z,12.20
2018-03-24T21:21:30.574Z,11.60
2018-03-24T21:23:59.466Z,14.23
2018-03-24T21:26:28.322Z,12.67
2018-03-24T21:28:57.187Z,10.90
2018-03-24T21:31:26.154Z,9.37
2018-03-24T21:33:55.003Z,9.10
2018-03-24T21:36:23.878Z,6.53
2018-03-24T21:38:53.563Z,6.17
2018-03-24T21:41:22.616Z,7.37
2018-03-24T21:43:51.568Z,5.73
2018-03-24T21:46:20.473Z,15.47
2018-03-24T21:48:49.327Z,17.13
2018-03-24T21:51:18.178Z,23.00
2018-03-24T21:53:47.100Z,16.70
2018-03-24T21:56:15.973Z,20.93
2018-03-24T21:58:46.430Z,23.00
2018-03-24T22:01:15.278Z,12.53
2018-03-24T22:03:44.139Z,14.37
2018-03-24T22:06:13.394Z,11.47
2018-03-24T22:08:42.264Z,10.93
2018-03-24T22:11:11.120Z,10.57
2018-03-24T22:13:40.012Z,9.63
2018-03-24T22:16:08.844Z,7.87
2018-03-24T22:18:37.758Z,8.27
2018-03-24T22:21:07.360Z,7.90
2018-03-24T22:23:36.227Z,7.57
2018-03-24T22:26:05.115Z,7.43
2018-03-24T22:28:33.968Z,7.70
2018-03-24T22:33:38.194Z,9.57
2018-03-24T22:36:07.992Z,6.33
2018-03-24T22:38:36.852Z,8.73
2018-03-24T22:41:05.852Z,8.00
2018-03-24T22:43:34.947Z,6.53
2018-03-24T22:46:03.841Z,8.97
2018-03-24T22:48:32.706Z,8.00
2018-03-24T22:51:01.842Z,6.67
2018-03-24T22:53:30.694Z,7.60
2018-03-24T22:55:59.558Z,8.57
2018-03-24T22:58:29.130Z,6.67
2018-03-24T23:00:57.984Z,8.07
2018-03-24T23:03:26.848Z,9.80
2018-03-24T23:05:56.123Z,9.23
2018-03-24T23:08:24.978Z,7.37
2018-03-24T23:10:53.830Z,8.13
2018-03-24T23:13:22.713Z,9.30
2018-03-24T23:15:51.564Z,9.50
2018-03-24T23:18:20.822Z,8.83
2018-03-24T23:20:49.675Z,7.40
2018-03-24T23:23:19.360Z,9.47
2018-03-24T23:25:48.477Z,7.73
2018-03-24T23:28:17.319Z,9.73
2018-03-24T23:30:46.187Z,10.77
2018-03-24T23:33:15.070Z,9.47
2018-03-24T23:35:44.023Z,9.60
2018-03-24T23:38:13.086Z,9.67
2018-03-24T23:40:41.944Z,9.57
2018-03-24T23:43:10.792Z,11.13
2018-03-24T23:45:39.748Z,10.43
2018-03-24T23:48:08.587Z,7.77
2018-03-24T23:50:37.693Z,9.60
2018-03-24T23:53:06.551Z,12.30
2018-03-24T23:55:35.408Z,10.60
2018-03-24T23:58:04.300Z,7.97
